sensor_id;sensor_type;location;lat;lon;timestamp;P1;durP1;ratioP1;P2;durP2;ratioP2
22778;SDS011;11556;51.194;3.800;2023-10-09T00:00:23;15.68;;;10.93;;
22778;SDS011;11556;51.194;3.800;2023-10-09T00:03:04;16.58;;;10.55;;
22778;SDS011;11556;51.194;3.800;2023-10-09T00:05:31;15.55;;;9.82;;
22778;SDS011;11556;51.194;3.800;2023-10-09T00:08:09;15.80;;;10.02;;
22778;SDS011;11556;51.194;3.800;2023-10-09T00:10:41;15.05;;;10.27;;
22778;SDS011;11556;51.194;3.800;2023-10-09T00:13:22;16.77;;;10.35;;
22778;SDS011;11556;51.194;3.800;2023-10-09T00:15:58;20.58;;;10.70;;
22778;SDS011;11556;51.194;3.800;2023-10-09T00:18:38;17.85;;;10.57;;
22778;SDS011;11556;51.194;3.800;2023-10-09T00:21:06;18.48;;;11.00;;
22778;SDS011;11556;51.194;3.800;2023-10-09T00:23:40;21.38;;;9.80;;
22778;SDS011;11556;51.194;3.800;2023-10-09T00:26:09;20.50;;;10.48;;
22778;SDS011;11556;51.194;3.800;2023-10-09T00:28:41;15.50;;;10.70;;
22778;SDS011;11556;51.194;3.800;2023-10-09T00:31:11;16.52;;;10.60;;
22778;SDS011;11556;51.194;3.800;2023-10-09T00:33:42;17.65;;;10.88;;
22778;SDS011;11556;51.194;3.800;2023-10-09T00:36:08;15.82;;;10.45;;
22778;SDS011;11556;51.194;3.800;2023-10-09T00:38:35;21.08;;;10.45;;
22778;SDS011;11556;51.194;3.800;2023-10-09T00:41:30;21.55;;;10.15;;
22778;SDS011;11556;51.194;3.800;2023-10-09T00:44:00;15.55;;;10.30;;
22778;SDS011;11556;51.194;3.800;2023-10-09T00:46:26;18.00;;;10.98;;
22778;SDS011;11556;51.194;3.800;2023-10-09T00:48:56;16.55;;;10.55;;
22778;SDS011;11556;51.194;3.800;2023-10-09T00:51:26;17.42;;;10.90;;
22778;SDS011;11556;51.194;3.800;2023-10-09T00:53:56;15.98;;;10.65;;
22778;SDS011;11556;51.194;3.800;2023-10-09T00:56:23;21.67;;;10.93;;
22778;SDS011;11556;51.194;3.800;2023-10-09T00:58:50;19.13;;;10.70;;
22778;SDS011;11556;51.194;3.800;2023-10-09T01:01:24;16.90;;;10.70;;
22778;SDS011;11556;51.194;3.800;2023-10-09T01:04:09;18.05;;;11.27;;
22778;SDS011;11556;51.194;3.800;2023-10-09T01:06:38;17.63;;;10.15;;
22778;SDS011;11556;51.194;3.800;2023-10-09T01:09:10;16.33;;;10.43;;
22778;SDS011;11556;51.194;3.800;2023-10-09T01:11:42;14.50;;;10.75;;
22778;SDS011;11556;51.194;3.800;2023-10-09T01:14:15;20.20;;;10.95;;
22778;SDS011;11556;51.194;3.800;2023-10-09T01:16:41;15.02;;;10.60;;
22778;SDS011;11556;51.194;3.800;2023-10-09T01:19:08;18.40;;;10.95;;
22778;SDS011;11556;51.194;3.800;2023-10-09T01:22:00;15.77;;;11.00;;
22778;SDS011;11556;51.194;3.800;2023-10-09T01:24:39;16.25;;;10.10;;
22778;SDS011;11556;51.194;3.800;2023-10-09T01:27:05;20.58;;;11.07;;
22778;SDS011;11556;51.194;3.800;2023-10-09T01:29:41;18.90;;;10.60;;
22778;SDS011;11556;51.194;3.800;2023-10-09T01:32:07;17.50;;;11.00;;
22778;SDS011;11556;51.194;3.800;2023-10-09T01:34:41;19.00;;;11.43;;
22778;SDS011;11556;51.194;3.800;2023-10-09T01:37:09;18.63;;;10.70;;
22778;SDS011;11556;51.194;3.800;2023-10-09T01:39:48;18.98;;;11.57;;
22778;SDS011;11556;51.194;3.800;2023-10-09T01:42:16;17.40;;;11.43;;
22778;SDS011;11556;51.194;3.800;2023-10-09T01:45:10;20.60;;;11.52;;
22778;SDS011;11556;51.194;3.800;2023-10-09T01:47:37;19.35;;;11.50;;
22778;SDS011;11556;51.194;3.800;2023-10-09T01:50:05;20.95;;;12.15;;
22778;SDS011;11556;51.194;3.800;2023-10-09T01:52:45;18.83;;;12.15;;
22778;SDS011;11556;51.194;3.800;2023-10-09T01:55:11;18.67;;;11.63;;
22778;SDS011;11556;51.194;3.800;2023-10-09T01:57:55;19.98;;;12.88;;
22778;SDS011;11556;51.194;3.800;2023-10-09T02:02:54;21.48;;;12.45;;
22778;SDS011;11556;51.194;3.800;2023-10-09T02:05:20;22.73;;;12.55;;
22778;SDS011;11556;51.194;3.800;2023-10-09T02:07:45;20.20;;;12.60;;
22778;SDS011;11556;51.194;3.800;2023-10-09T02:10:18;18.27;;;12.43;;
22778;SDS011;11556;51.194;3.800;2023-10-09T02:12:51;20.92;;;12.40;;
22778;SDS011;11556;51.194;3.800;2023-10-09T02:15:27;21.80;;;13.25;;
22778;SDS011;11556;51.194;3.800;2023-10-09T02:18:06;18.85;;;12.40;;
22778;SDS011;11556;51.194;3.800;2023-10-09T02:23:27;20.92;;;13.35;;
22778;SDS011;11556;51.194;3.800;2023-10-09T02:26:14;18.65;;;12.45;;
22778;SDS011;11556;51.194;3.800;2023-10-09T02:28:49;17.70;;;13.05;;
22778;SDS011;11556;51.194;3.800;2023-10-09T02:31:39;21.98;;;13.15;;
22778;SDS011;11556;51.194;3.800;2023-10-09T02:34:16;23.85;;;13.75;;
22778;SDS011;11556;51.194;3.800;2023-10-09T02:36:46;18.48;;;13.48;;
22778;SDS011;11556;51.194;3.800;2023-10-09T02:39:22;20.95;;;13.60;;
22778;SDS011;11556;51.194;3.800;2023-10-09T02:41:54;22.98;;;14.55;;
22778;SDS011;11556;51.194;3.800;2023-10-09T02:44:33;21.95;;;14.00;;
22778;SDS011;11556;51.194;3.800;2023-10-09T02:47:05;24.05;;;13.75;;
22778;SDS011;11556;51.194;3.800;2023-10-09T02:49:37;24.38;;;14.20;;
22778;SDS011;11556;51.194;3.800;2023-10-09T02:52:06;23.80;;;14.90;;
22778;SDS011;11556;51.194;3.800;2023-10-09T02:54:32;21.33;;;14.63;;
22778;SDS011;11556;51.194;3.800;2023-10-09T02:57:06;24.85;;;14.85;;
22778;SDS011;11556;51.194;3.800;2023-10-09T02:59:33;24.13;;;15.60;;
22778;SDS011;11556;51.194;3.800;2023-10-09T03:02:06;24.90;;;14.70;;
22778;SDS011;11556;51.194;3.800;2023-10-09T03:04:32;24.02;;;14.57;;
22778;SDS011;11556;51.194;3.800;2023-10-09T03:06:58;22.20;;;14.60;;
22778;SDS011;11556;51.194;3.800;2023-10-09T03:09:25;23.13;;;14.88;;
22778;SDS011;11556;51.194;3.800;2023-10-09T03:11:54;22.77;;;15.27;;
22778;SDS011;11556;51.194;3.800;2023-10-09T03:14:27;23.92;;;16.65;;
22778;SDS011;11556;51.194;3.800;2023-10-09T03:16:57;24.90;;;15.82;;
22778;SDS011;11556;51.194;3.800;2023-10-09T03:19:26;22.98;;;15.23;;
22778;SDS011;11556;51.194;3.800;2023-10-09T03:21:53;25.73;;;15.95;;
22778;SDS011;11556;51.194;3.800;2023-10-09T03:24:22;23.27;;;16.05;;
22778;SDS011;11556;51.194;3.800;2023-10-09T03:26:48;24.90;;;17.00;;
22778;SDS011;11556;51.194;3.800;2023-10-09T03:29:14;25.38;;;17.20;;
22778;SDS011;11556;51.194;3.800;2023-10-09T03:31:40;28.98;;;17.58;;
22778;SDS011;11556;51.194;3.800;2023-10-09T03:34:08;30.10;;;17.85;;
22778;SDS011;11556;51.194;3.800;2023-10-09T03:36:35;28.10;;;18.08;;
22778;SDS011;11556;51.194;3.800;2023-10-09T03:39:06;28.08;;;19.15;;
22778;SDS011;11556;51.194;3.800;2023-10-09T03:41:58;25.90;;;18.67;;
22778;SDS011;11556;51.194;3.800;2023-10-09T03:44:24;26.15;;;18.30;;
22778;SDS011;11556;51.194;3.800;2023-10-09T03:46:53;31.27;;;19.30;;
22778;SDS011;11556;51.194;3.800;2023-10-09T03:49:19;31.13;;;20.33;;
22778;SDS011;11556;51.194;3.800;2023-10-09T03:51:51;30.75;;;20.85;;
22778;SDS011;11556;51.194;3.800;2023-10-09T03:54:18;31.73;;;20.30;;
22778;SDS011;11556;51.194;3.800;2023-10-09T03:56:47;35.45;;;22.00;;
22778;SDS011;11556;51.194;3.800;2023-10-09T04:01:46;38.58;;;22.25;;
22778;SDS011;11556;51.194;3.800;2023-10-09T04:04:13;32.40;;;21.88;;
22778;SDS011;11556;51.194;3.800;2023-10-09T04:06:39;36.63;;;23.73;;
22778;SDS011;11556;51.194;3.800;2023-10-09T04:09:09;34.78;;;23.10;;
22778;SDS011;11556;51.194;3.800;2023-10-09T04:11:44;39.92;;;23.38;;
22778;SDS011;11556;51.194;3.800;2023-10-09T04:14:22;35.20;;;24.10;;
22778;SDS011;11556;51.194;3.800;2023-10-09T04:16:58;33.08;;;23.73;;
22778;SDS011;11556;51.194;3.800;2023-10-09T04:19:30;36.80;;;24.23;;
22778;SDS011;11556;51.194;3.800;2023-10-09T04:22:04;35.83;;;24.50;;
22778;SDS011;11556;51.194;3.800;2023-10-09T04:24:34;33.13;;;24.50;;
22778;SDS011;11556;51.194;3.800;2023-10-09T04:27:09;36.88;;;24.55;;
22778;SDS011;11556;51.194;3.800;2023-10-09T04:29:35;37.70;;;24.05;;
22778;SDS011;11556;51.194;3.800;2023-10-09T04:32:03;42.10;;;24.73;;
22778;SDS011;11556;51.194;3.800;2023-10-09T04:34:32;39.55;;;26.85;;
22778;SDS011;11556;51.194;3.800;2023-10-09T04:37:09;40.30;;;27.65;;
22778;SDS011;11556;51.194;3.800;2023-10-09T04:39:38;46.05;;;28.90;;
22778;SDS011;11556;51.194;3.800;2023-10-09T04:42:11;46.55;;;28.33;;
22778;SDS011;11556;51.194;3.800;2023-10-09T04:44:49;43.05;;;29.00;;
22778;SDS011;11556;51.194;3.800;2023-10-09T04:47:41;46.47;;;28.60;;
22778;SDS011;11556;51.194;3.800;2023-10-09T04:50:23;50.22;;;30.63;;
22778;SDS011;11556;51.194;3.800;2023-10-09T04:52:55;43.88;;;29.88;;
22778;SDS011;11556;51.194;3.800;2023-10-09T04:55:21;46.13;;;31.52;;
22778;SDS011;11556;51.194;3.800;2023-10-09T04:57:50;49.10;;;32.72;;
22778;SDS011;11556;51.194;3.800;2023-10-09T05:00:48;47.53;;;31.92;;
22778;SDS011;11556;51.194;3.800;2023-10-09T05:03:27;47.15;;;33.50;;
22778;SDS011;11556;51.194;3.800;2023-10-09T05:05:55;50.88;;;34.50;;
22778;SDS011;11556;51.194;3.800;2023-10-09T05:08:25;50.53;;;34.60;;
22778;SDS011;11556;51.194;3.800;2023-10-09T05:16:11;56.58;;;35.33;;
22778;SDS011;11556;51.194;3.800;2023-10-09T05:18:44;59.72;;;37.53;;
22778;SDS011;11556;51.194;3.800;2023-10-09T05:21:11;50.65;;;35.95;;
22778;SDS011;11556;51.194;3.800;2023-10-09T05:23:37;55.80;;;37.95;;
22778;SDS011;11556;51.194;3.800;2023-10-09T05:26:09;54.95;;;37.08;;
22778;SDS011;11556;51.194;3.800;2023-10-09T05:28:53;61.20;;;36.97;;
22778;SDS011;11556;51.194;3.800;2023-10-09T05:31:23;58.15;;;38.40;;
22778;SDS011;11556;51.194;3.800;2023-10-09T05:34:07;57.88;;;39.25;;
22778;SDS011;11556;51.194;3.800;2023-10-09T05:36:33;60.63;;;38.08;;
22778;SDS011;11556;51.194;3.800;2023-10-09T05:39:00;55.63;;;38.17;;
22778;SDS011;11556;51.194;3.800;2023-10-09T05:42:02;54.95;;;38.05;;
22778;SDS011;11556;51.194;3.800;2023-10-09T05:44:34;60.65;;;39.63;;
22778;SDS011;11556;51.194;3.800;2023-10-09T05:47:18;56.70;;;38.67;;
22778;SDS011;11556;51.194;3.800;2023-10-09T05:49:56;59.03;;;39.60;;
22778;SDS011;11556;51.194;3.800;2023-10-09T05:52:48;59.88;;;40.75;;
22778;SDS011;11556;51.194;3.800;2023-10-09T05:55:24;57.17;;;39.85;;
22778;SDS011;11556;51.194;3.800;2023-10-09T05:57:56;61.53;;;40.47;;
22778;SDS011;11556;51.194;3.800;2023-10-09T06:00:34;58.75;;;38.63;;
22778;SDS011;11556;51.194;3.800;2023-10-09T06:03:18;57.05;;;39.28;;
22778;SDS011;11556;51.194;3.800;2023-10-09T06:05:47;56.88;;;39.08;;
22778;SDS011;11556;51.194;3.800;2023-10-09T06:08:23;63.97;;;40.67;;
22778;SDS011;11556;51.194;3.800;2023-10-09T06:10:52;58.80;;;38.97;;
22778;SDS011;11556;51.194;3.800;2023-10-09T06:13:36;53.72;;;38.35;;
22778;SDS011;11556;51.194;3.800;2023-10-09T06:16:02;55.03;;;37.88;;
22778;SDS011;11556;51.194;3.800;2023-10-09T06:21:19;56.67;;;37.65;;
22778;SDS011;11556;51.194;3.800;2023-10-09T06:24:04;55.50;;;37.22;;
22778;SDS011;11556;51.194;3.800;2023-10-09T06:26:35;54.75;;;37.33;;
22778;SDS011;11556;51.194;3.800;2023-10-09T06:29:01;56.55;;;38.47;;
22778;SDS011;11556;51.194;3.800;2023-10-09T06:31:39;52.60;;;36.10;;
22778;SDS011;11556;51.194;3.800;2023-10-09T06:34:22;50.33;;;35.17;;
22778;SDS011;11556;51.194;3.800;2023-10-09T06:37:01;53.83;;;35.45;;
22778;SDS011;11556;51.194;3.800;2023-10-09T06:39:43;48.15;;;34.38;;
22778;SDS011;11556;51.194;3.800;2023-10-09T06:42:15;52.63;;;35.15;;
22778;SDS011;11556;51.194;3.800;2023-10-09T06:45:03;52.80;;;36.08;;
22778;SDS011;11556;51.194;3.800;2023-10-09T06:47:34;56.55;;;35.30;;
22778;SDS011;11556;51.194;3.800;2023-10-09T06:50:18;51.28;;;35.22;;
22778;SDS011;11556;51.194;3.800;2023-10-09T06:52:47;53.80;;;33.40;;
22778;SDS011;11556;51.194;3.800;2023-10-09T06:55:26;52.92;;;33.20;;
22778;SDS011;11556;51.194;3.800;2023-10-09T06:58:21;46.40;;;32.38;;
22778;SDS011;11556;51.194;3.800;2023-10-09T07:01:07;43.95;;;31.70;;
22778;SDS011;11556;51.194;3.800;2023-10-09T07:03:54;48.70;;;32.08;;
22778;SDS011;11556;51.194;3.800;2023-10-09T07:06:25;48.60;;;31.63;;
22778;SDS011;11556;51.194;3.800;2023-10-09T07:09:00;42.33;;;31.15;;
22778;SDS011;11556;51.194;3.800;2023-10-09T07:11:32;47.28;;;32.58;;
22778;SDS011;11556;51.194;3.800;2023-10-09T07:14:04;45.65;;;31.00;;
22778;SDS011;11556;51.194;3.800;2023-10-09T07:16:31;42.45;;;29.40;;
22778;SDS011;11556;51.194;3.800;2023-10-09T07:19:06;47.63;;;30.75;;
22778;SDS011;11556;51.194;3.800;2023-10-09T07:21:37;45.15;;;30.52;;
22778;SDS011;11556;51.194;3.800;2023-10-09T07:24:04;39.60;;;29.08;;
22778;SDS011;11556;51.194;3.800;2023-10-09T07:26:40;41.90;;;28.85;;
22778;SDS011;11556;51.194;3.800;2023-10-09T07:29:12;40.00;;;28.52;;
22778;SDS011;11556;51.194;3.800;2023-10-09T07:31:42;44.13;;;28.63;;
22778;SDS011;11556;51.194;3.800;2023-10-09T07:34:11;39.70;;;26.10;;
22778;SDS011;11556;51.194;3.800;2023-10-09T07:36:56;40.65;;;28.02;;
22778;SDS011;11556;51.194;3.800;2023-10-09T07:39:21;39.20;;;28.20;;
22778;SDS011;11556;51.194;3.800;2023-10-09T07:41:48;47.10;;;27.98;;
22778;SDS011;11556;51.194;3.800;2023-10-09T07:44:33;45.30;;;28.58;;
22778;SDS011;11556;51.194;3.800;2023-10-09T07:47:04;42.80;;;29.23;;
22778;SDS011;11556;51.194;3.800;2023-10-09T07:49:43;42.35;;;28.17;;
22778;SDS011;11556;51.194;3.800;2023-10-09T07:52:13;42.53;;;29.15;;
22778;SDS011;11556;51.194;3.800;2023-10-09T07:54:40;45.42;;;29.73;;
22778;SDS011;11556;51.194;3.800;2023-10-09T07:57:15;39.90;;;28.23;;
22778;SDS011;11556;51.194;3.800;2023-10-09T07:59:42;41.53;;;27.92;;
22778;SDS011;11556;51.194;3.800;2023-10-09T08:02:19;40.30;;;27.38;;
22778;SDS011;11556;51.194;3.800;2023-10-09T08:05:00;40.10;;;26.25;;
22778;SDS011;11556;51.194;3.800;2023-10-09T08:07:47;37.17;;;26.05;;
22778;SDS011;11556;51.194;3.800;2023-10-09T08:10:20;44.38;;;25.83;;
22778;SDS011;11556;51.194;3.800;2023-10-09T08:13:06;38.33;;;25.10;;
22778;SDS011;11556;51.194;3.800;2023-10-09T08:16:07;40.00;;;25.13;;
22778;SDS011;11556;51.194;3.800;2023-10-09T08:18:42;36.83;;;24.48;;
22778;SDS011;11556;51.194;3.800;2023-10-09T08:21:09;41.30;;;24.70;;
22778;SDS011;11556;51.194;3.800;2023-10-09T08:23:35;33.85;;;23.60;;
22778;SDS011;11556;51.194;3.800;2023-10-09T08:26:13;38.78;;;25.10;;
22778;SDS011;11556;51.194;3.800;2023-10-09T08:31:11;34.45;;;24.23;;
22778;SDS011;11556;51.194;3.800;2023-10-09T08:33:48;36.50;;;22.90;;
22778;SDS011;11556;51.194;3.800;2023-10-09T08:36:25;34.72;;;24.05;;
22778;SDS011;11556;51.194;3.800;2023-10-09T08:39:01;34.53;;;23.83;;
22778;SDS011;11556;51.194;3.800;2023-10-09T08:41:50;32.70;;;24.33;;
22778;SDS011;11556;51.194;3.800;2023-10-09T08:44:23;34.65;;;25.05;;
22778;SDS011;11556;51.194;3.800;2023-10-09T08:46:51;34.97;;;25.30;;
22778;SDS011;11556;51.194;3.800;2023-10-09T08:49:19;42.35;;;25.08;;
22778;SDS011;11556;51.194;3.800;2023-10-09T08:51:46;37.28;;;25.42;;
22778;SDS011;11556;51.194;3.800;2023-10-09T08:54:13;38.85;;;25.20;;
22778;SDS011;11556;51.194;3.800;2023-10-09T08:56:40;36.33;;;24.65;;
22778;SDS011;11556;51.194;3.800;2023-10-09T08:59:14;36.30;;;25.00;;
22778;SDS011;11556;51.194;3.800;2023-10-09T09:01:43;37.70;;;25.08;;
22778;SDS011;11556;51.194;3.800;2023-10-09T09:04:36;38.85;;;24.20;;
22778;SDS011;11556;51.194;3.800;2023-10-09T09:07:06;34.63;;;23.23;;
22778;SDS011;11556;51.194;3.800;2023-10-09T09:09:54;35.63;;;23.20;;
22778;SDS011;11556;51.194;3.800;2023-10-09T09:12:28;39.75;;;24.67;;
22778;SDS011;11556;51.194;3.800;2023-10-09T09:15:02;36.97;;;24.45;;
22778;SDS011;11556;51.194;3.800;2023-10-09T09:17:32;41.92;;;25.55;;
22778;SDS011;11556;51.194;3.800;2023-10-09T09:19:58;40.78;;;24.80;;
22778;SDS011;11556;51.194;3.800;2023-10-09T09:22:24;32.92;;;23.85;;
22778;SDS011;11556;51.194;3.800;2023-10-09T09:24:58;37.85;;;24.08;;
22778;SDS011;11556;51.194;3.800;2023-10-09T09:27:46;38.28;;;23.30;;
22778;SDS011;11556;51.194;3.800;2023-10-09T09:30:26;32.93;;;23.73;;
22778;SDS011;11556;51.194;3.800;2023-10-09T09:33:16;39.85;;;25.00;;
22778;SDS011;11556;51.194;3.800;2023-10-09T09:35:55;36.08;;;24.13;;
22778;SDS011;11556;51.194;3.800;2023-10-09T09:38:27;37.47;;;24.45;;
22778;SDS011;11556;51.194;3.800;2023-10-09T09:40:56;38.25;;;24.70;;
22778;SDS011;11556;51.194;3.800;2023-10-09T09:43:22;41.83;;;24.92;;
22778;SDS011;11556;51.194;3.800;2023-10-09T09:45:50;37.58;;;23.27;;
22778;SDS011;11556;51.194;3.800;2023-10-09T09:48:18;38.58;;;23.52;;
22778;SDS011;11556;51.194;3.800;2023-10-09T09:50:44;32.05;;;23.17;;
22778;SDS011;11556;51.194;3.800;2023-10-09T09:53:12;38.05;;;24.73;;
22778;SDS011;11556;51.194;3.800;2023-10-09T09:55:53;34.28;;;21.30;;
22778;SDS011;11556;51.194;3.800;2023-10-09T09:58:22;33.40;;;21.30;;
22778;SDS011;11556;51.194;3.800;2023-10-09T10:00:59;34.83;;;22.10;;
22778;SDS011;11556;51.194;3.800;2023-10-09T10:03:37;35.42;;;22.58;;
22778;SDS011;11556;51.194;3.800;2023-10-09T10:06:08;34.30;;;21.95;;
22778;SDS011;11556;51.194;3.800;2023-10-09T10:08:37;31.60;;;21.23;;
22778;SDS011;11556;51.194;3.800;2023-10-09T10:11:04;33.13;;;21.90;;
22778;SDS011;11556;51.194;3.800;2023-10-09T10:16:06;30.77;;;20.95;;
22778;SDS011;11556;51.194;3.800;2023-10-09T10:19:04;33.72;;;21.80;;
22778;SDS011;11556;51.194;3.800;2023-10-09T10:21:36;32.53;;;21.83;;
22778;SDS011;11556;51.194;3.800;2023-10-09T10:27:14;35.13;;;21.85;;
22778;SDS011;11556;51.194;3.800;2023-10-09T10:29:46;32.05;;;21.17;;
22778;SDS011;11556;51.194;3.800;2023-10-09T10:40:09;28.92;;;20.00;;
22778;SDS011;11556;51.194;3.800;2023-10-09T10:43:03;30.20;;;19.40;;
22778;SDS011;11556;51.194;3.800;2023-10-09T10:45:34;31.23;;;19.48;;
22778;SDS011;11556;51.194;3.800;2023-10-09T10:48:08;31.48;;;19.27;;
22778;SDS011;11556;51.194;3.800;2023-10-09T10:50:47;31.45;;;19.08;;
22778;SDS011;11556;51.194;3.800;2023-10-09T10:53:14;34.35;;;19.48;;
22778;SDS011;11556;51.194;3.800;2023-10-09T10:58:40;31.40;;;18.38;;
22778;SDS011;11556;51.194;3.800;2023-10-09T11:01:33;29.60;;;18.80;;
22778;SDS011;11556;51.194;3.800;2023-10-09T11:04:22;29.85;;;18.02;;
22778;SDS011;11556;51.194;3.800;2023-10-09T11:06:54;33.58;;;19.65;;
22778;SDS011;11556;51.194;3.800;2023-10-09T11:12:51;29.10;;;17.67;;
22778;SDS011;11556;51.194;3.800;2023-10-09T11:15:16;30.67;;;18.50;;
22778;SDS011;11556;51.194;3.800;2023-10-09T11:18:00;30.67;;;18.02;;
22778;SDS011;11556;51.194;3.800;2023-10-09T11:20:33;26.45;;;18.05;;
22778;SDS011;11556;51.194;3.800;2023-10-09T11:22:59;25.25;;;17.23;;
22778;SDS011;11556;51.194;3.800;2023-10-09T11:25:38;31.92;;;16.98;;
22778;SDS011;11556;51.194;3.800;2023-10-09T11:28:24;27.92;;;16.58;;
22778;SDS011;11556;51.194;3.800;2023-10-09T11:31:11;27.48;;;16.17;;
22778;SDS011;11556;51.194;3.800;2023-10-09T11:33:44;30.30;;;16.58;;
22778;SDS011;11556;51.194;3.800;2023-10-09T11:36:10;25.73;;;16.27;;
22778;SDS011;11556;51.194;3.800;2023-10-09T11:38:36;27.58;;;15.77;;
22778;SDS011;11556;51.194;3.800;2023-10-09T11:41:13;23.33;;;16.10;;
22778;SDS011;11556;51.194;3.800;2023-10-09T11:43:49;29.92;;;15.18;;
22778;SDS011;11556;51.194;3.800;2023-10-09T11:46:16;29.33;;;16.63;;
22778;SDS011;11556;51.194;3.800;2023-10-09T11:49:10;26.27;;;15.88;;
22778;SDS011;11556;51.194;3.800;2023-10-09T11:51:45;21.95;;;15.65;;
22778;SDS011;11556;51.194;3.800;2023-10-09T11:54:34;29.10;;;15.88;;
22778;SDS011;11556;51.194;3.800;2023-10-09T11:57:00;24.35;;;16.02;;
22778;SDS011;11556;51.194;3.800;2023-10-09T11:59:29;26.77;;;16.60;;
22778;SDS011;11556;51.194;3.800;2023-10-09T12:02:07;27.73;;;15.98;;
22778;SDS011;11556;51.194;3.800;2023-10-09T12:04:38;27.25;;;15.43;;
22778;SDS011;11556;51.194;3.800;2023-10-09T12:07:07;31.08;;;15.13;;
22778;SDS011;11556;51.194;3.800;2023-10-09T12:09:36;25.48;;;13.30;;
22778;SDS011;11556;51.194;3.800;2023-10-09T12:12:03;25.67;;;12.65;;
22778;SDS011;11556;51.194;3.800;2023-10-09T12:14:30;24.17;;;13.15;;
22778;SDS011;11556;51.194;3.800;2023-10-09T12:17:00;20.70;;;12.38;;
22778;SDS011;11556;51.194;3.800;2023-10-09T12:19:33;21.80;;;12.30;;
22778;SDS011;11556;51.194;3.800;2023-10-09T12:22:03;19.25;;;12.20;;
22778;SDS011;11556;51.194;3.800;2023-10-09T12:24:30;23.92;;;11.43;;
22778;SDS011;11556;51.194;3.800;2023-10-09T12:26:58;23.15;;;12.15;;
22778;SDS011;11556;51.194;3.800;2023-10-09T12:29:24;22.55;;;11.43;;
22778;SDS011;11556;51.194;3.800;2023-10-09T12:31:55;19.90;;;11.00;;
22778;SDS011;11556;51.194;3.800;2023-10-09T12:34:27;22.45;;;10.75;;
22778;SDS011;11556;51.194;3.800;2023-10-09T12:36:53;19.25;;;10.35;;
22778;SDS011;11556;51.194;3.800;2023-10-09T12:39:20;19.95;;;10.85;;
22778;SDS011;11556;51.194;3.800;2023-10-09T12:41:46;20.98;;;10.30;;
22778;SDS011;11556;51.194;3.800;2023-10-09T12:44:13;17.92;;;10.50;;
22778;SDS011;11556;51.194;3.800;2023-10-09T12:46:40;18.63;;;10.23;;
22778;SDS011;11556;51.194;3.800;2023-10-09T12:49:07;18.38;;;9.43;;
22778;SDS011;11556;51.194;3.800;2023-10-09T12:51:33;22.15;;;8.55;;
22778;SDS011;11556;51.194;3.800;2023-10-09T12:53:58;16.70;;;7.55;;
22778;SDS011;11556;51.194;3.800;2023-10-09T12:56:26;15.18;;;7.47;;
22778;SDS011;11556;51.194;3.800;2023-10-09T12:59:12;17.00;;;7.53;;
22778;SDS011;11556;51.194;3.800;2023-10-09T13:01:40;11.95;;;6.88;;
22778;SDS011;11556;51.194;3.800;2023-10-09T13:04:15;15.10;;;6.80;;
22778;SDS011;11556;51.194;3.800;2023-10-09T13:06:41;13.25;;;6.88;;
22778;SDS011;11556;51.194;3.800;2023-10-09T13:09:16;16.02;;;6.82;;
22778;SDS011;11556;51.194;3.800;2023-10-09T13:11:58;16.85;;;7.13;;
22778;SDS011;11556;51.194;3.800;2023-10-09T13:14:25;13.38;;;7.05;;
22778;SDS011;11556;51.194;3.800;2023-10-09T13:16:59;14.57;;;7.82;;
22778;SDS011;11556;51.194;3.800;2023-10-09T13:19:24;14.75;;;7.43;;
22778;SDS011;11556;51.194;3.800;2023-10-09T13:21:50;17.30;;;7.70;;
22778;SDS011;11556;51.194;3.800;2023-10-09T13:24:16;16.95;;;8.48;;
22778;SDS011;11556;51.194;3.800;2023-10-09T13:26:43;17.95;;;7.88;;
22778;SDS011;11556;51.194;3.800;2023-10-09T13:29:16;12.00;;;7.45;;
22778;SDS011;11556;51.194;3.800;2023-10-09T13:31:47;13.93;;;7.65;;
22778;SDS011;11556;51.194;3.800;2023-10-09T13:34:14;16.42;;;8.30;;
22778;SDS011;11556;51.194;3.800;2023-10-09T13:36:42;20.98;;;8.00;;
22778;SDS011;11556;51.194;3.800;2023-10-09T13:39:23;12.73;;;7.60;;
22778;SDS011;11556;51.194;3.800;2023-10-09T13:41:50;12.90;;;7.65;;
22778;SDS011;11556;51.194;3.800;2023-10-09T13:44:22;16.85;;;7.82;;
22778;SDS011;11556;51.194;3.800;2023-10-09T13:46:59;14.77;;;7.57;;
22778;SDS011;11556;51.194;3.800;2023-10-09T13:49:27;10.90;;;6.88;;
22778;SDS011;11556;51.194;3.800;2023-10-09T13:51:56;11.32;;;6.63;;
22778;SDS011;11556;51.194;3.800;2023-10-09T13:54:26;14.07;;;7.75;;
22778;SDS011;11556;51.194;3.800;2023-10-09T13:56:59;16.13;;;7.07;;
22778;SDS011;11556;51.194;3.800;2023-10-09T13:59:25;15.45;;;7.63;;
22778;SDS011;11556;51.194;3.800;2023-10-09T14:01:51;14.00;;;7.30;;
22778;SDS011;11556;51.194;3.800;2023-10-09T14:04:20;15.82;;;6.82;;
22778;SDS011;11556;51.194;3.800;2023-10-09T14:06:49;15.50;;;6.63;;
22778;SDS011;11556;51.194;3.800;2023-10-09T14:09:26;17.80;;;6.50;;
22778;SDS011;11556;51.194;3.800;2023-10-09T14:11:56;14.38;;;6.38;;
22778;SDS011;11556;51.194;3.800;2023-10-09T14:14:40;11.50;;;6.22;;
22778;SDS011;11556;51.194;3.800;2023-10-09T14:17:12;13.10;;;5.78;;
22778;SDS011;11556;51.194;3.800;2023-10-09T14:19:39;16.05;;;5.78;;
22778;SDS011;11556;51.194;3.800;2023-10-09T14:22:15;11.10;;;5.90;;
22778;SDS011;11556;51.194;3.800;2023-10-09T14:24:45;12.35;;;6.20;;
22778;SDS011;11556;51.194;3.800;2023-10-09T14:27:15;13.57;;;6.38;;
22778;SDS011;11556;51.194;3.800;2023-10-09T14:29:47;17.88;;;6.30;;
22778;SDS011;11556;51.194;3.800;2023-10-09T14:32:13;13.35;;;6.75;;
22778;SDS011;11556;51.194;3.800;2023-10-09T14:34:40;14.32;;;6.65;;
22778;SDS011;11556;51.194;3.800;2023-10-09T14:37:16;12.18;;;6.07;;
22778;SDS011;11556;51.194;3.800;2023-10-09T14:39:44;15.85;;;6.53;;
22778;SDS011;11556;51.194;3.800;2023-10-09T14:42:13;13.82;;;6.47;;
22778;SDS011;11556;51.194;3.800;2023-10-09T14:44:40;13.05;;;7.00;;
22778;SDS011;11556;51.194;3.800;2023-10-09T14:47:07;13.88;;;7.22;;
22778;SDS011;11556;51.194;3.800;2023-10-09T14:49:36;16.75;;;6.72;;
22778;SDS011;11556;51.194;3.800;2023-10-09T14:52:09;23.95;;;7.07;;
22778;SDS011;11556;51.194;3.800;2023-10-09T14:54:35;16.30;;;7.10;;
22778;SDS011;11556;51.194;3.800;2023-10-09T14:57:01;17.30;;;6.57;;
22778;SDS011;11556;51.194;3.800;2023-10-09T14:59:33;52.92;;;8.57;;
22778;SDS011;11556;51.194;3.800;2023-10-09T15:01:59;22.85;;;7.32;;
22778;SDS011;11556;51.194;3.800;2023-10-09T15:04:26;13.82;;;6.07;;
22778;SDS011;11556;51.194;3.800;2023-10-09T15:06:52;15.93;;;6.20;;
22778;SDS011;11556;51.194;3.800;2023-10-09T15:09:18;15.45;;;6.07;;
22778;SDS011;11556;51.194;3.800;2023-10-09T15:11:54;14.10;;;6.40;;
22778;SDS011;11556;51.194;3.800;2023-10-09T15:14:20;12.02;;;5.82;;
22778;SDS011;11556;51.194;3.800;2023-10-09T15:16:46;10.32;;;5.88;;
22778;SDS011;11556;51.194;3.800;2023-10-09T15:19:13;20.50;;;6.38;;
22778;SDS011;11556;51.194;3.800;2023-10-09T15:21:39;14.38;;;6.03;;
22778;SDS011;11556;51.194;3.800;2023-10-09T15:24:12;11.52;;;5.95;;
22778;SDS011;11556;51.194;3.800;2023-10-09T15:26:47;14.25;;;6.40;;
22778;SDS011;11556;51.194;3.800;2023-10-09T15:29:19;13.35;;;5.95;;
22778;SDS011;11556;51.194;3.800;2023-10-09T15:31:48;11.75;;;5.65;;
22778;SDS011;11556;51.194;3.800;2023-10-09T15:34:17;13.68;;;5.03;;